sensor_id;sensor_type;location;lat;lon;timestamp;P1;durP1;ratioP1;P2;durP2;ratioP2
46210;SDS011;52144;48.040;-1.594;2023-07-16T00:00:40;16.55;;;4.72;;
46210;SDS011;52144;48.040;-1.594;2023-07-16T00:03:09;8.77;;;4.20;;
46210;SDS011;52144;48.040;-1.594;2023-07-16T00:05:37;13.35;;;4.40;;
46210;SDS011;52144;48.040;-1.594;2023-07-16T00:08:05;10.73;;;4.78;;
46210;SDS011;52144;48.040;-1.594;2023-07-16T00:10:34;17.42;;;4.55;;
46210;SDS011;52144;48.040;-1.594;2023-07-16T00:13:02;15.05;;;5.05;;
46210;SDS011;52144;48.040;-1.594;2023-07-16T00:15:30;13.27;;;4.07;;
46210;SDS011;52144;48.040;-1.594;2023-07-16T00:17:58;12.65;;;4.57;;
46210;SDS011;52144;48.040;-1.594;2023-07-16T00:20:27;10.18;;;3.90;;
46210;SDS011;52144;48.040;-1.594;2023-07-16T00:22:55;8.27;;;3.72;;
46210;SDS011;52144;48.040;-1.594;2023-07-16T00:25:23;8.65;;;4.25;;
46210;SDS011;52144;48.040;-1.594;2023-07-16T00:27:51;20.73;;;5.13;;
46210;SDS011;52144;48.040;-1.594;2023-07-16T00:30:19;12.35;;;4.22;;
46210;SDS011;52144;48.040;-1.594;2023-07-16T00:32:47;11.70;;;3.53;;
46210;SDS011;52144;48.040;-1.594;2023-07-16T00:35:14;8.48;;;3.00;;
46210;SDS011;52144;48.040;-1.594;2023-07-16T00:37:44;14.55;;;4.70;;
46210;SDS011;52144;48.040;-1.594;2023-07-16T00:40:12;11.35;;;3.90;;
46210;SDS011;52144;48.040;-1.594;2023-07-16T00:42:40;8.25;;;4.03;;
46210;SDS011;52144;48.040;-1.594;2023-07-16T00:45:09;10.77;;;4.18;;
46210;SDS011;52144;48.040;-1.594;2023-07-16T00:47:40;12.98;;;4.13;;
46210;SDS011;52144;48.040;-1.594;2023-07-16T00:50:10;16.77;;;4.18;;
46210;SDS011;52144;48.040;-1.594;2023-07-16T00:52:38;12.07;;;4.35;;
46210;SDS011;52144;48.040;-1.594;2023-07-16T00:55:08;20.40;;;5.15;;
46210;SDS011;52144;48.040;-1.594;2023-07-16T00:57:37;12.15;;;4.03;;
46210;SDS011;52144;48.040;-1.594;2023-07-16T01:00:06;10.45;;;3.45;;
46210;SDS011;52144;48.040;-1.594;2023-07-16T01:02:35;12.20;;;4.07;;
46210;SDS011;52144;48.040;-1.594;2023-07-16T01:05:03;21.45;;;4.43;;
46210;SDS011;52144;48.040;-1.594;2023-07-16T01:07:31;13.88;;;4.72;;
46210;SDS011;52144;48.040;-1.594;2023-07-16T01:10:00;13.43;;;5.03;;
46210;SDS011;52144;48.040;-1.594;2023-07-16T01:12:30;10.40;;;4.72;;
46210;SDS011;52144;48.040;-1.594;2023-07-16T01:14:59;19.67;;;4.50;;
46210;SDS011;52144;48.040;-1.594;2023-07-16T01:17:28;13.07;;;5.90;;
46210;SDS011;52144;48.040;-1.594;2023-07-16T01:19:56;11.45;;;3.40;;
46210;SDS011;52144;48.040;-1.594;2023-07-16T01:22:27;16.10;;;3.80;;
46210;SDS011;52144;48.040;-1.594;2023-07-16T01:25:10;13.25;;;3.85;;
46210;SDS011;52144;48.040;-1.594;2023-07-16T01:27:55;11.48;;;4.10;;
46210;SDS011;52144;48.040;-1.594;2023-07-16T01:30:34;16.85;;;3.80;;
46210;SDS011;52144;48.040;-1.594;2023-07-16T01:35:36;14.77;;;4.65;;
46210;SDS011;52144;48.040;-1.594;2023-07-16T01:38:05;12.48;;;4.63;;
46210;SDS011;52144;48.040;-1.594;2023-07-16T01:40:34;23.67;;;5.47;;
46210;SDS011;52144;48.040;-1.594;2023-07-16T01:43:01;10.63;;;4.63;;
46210;SDS011;52144;48.040;-1.594;2023-07-16T01:45:29;12.82;;;4.68;;
46210;SDS011;52144;48.040;-1.594;2023-07-16T01:48:01;14.35;;;4.93;;
46210;SDS011;52144;48.040;-1.594;2023-07-16T01:50:36;11.75;;;3.55;;
46210;SDS011;52144;48.040;-1.594;2023-07-16T01:53:05;13.77;;;4.70;;
46210;SDS011;52144;48.040;-1.594;2023-07-16T01:55:32;11.98;;;3.58;;
46210;SDS011;52144;48.040;-1.594;2023-07-16T01:58:00;13.48;;;4.78;;
46210;SDS011;52144;48.040;-1.594;2023-07-16T02:00:29;10.05;;;4.70;;
46210;SDS011;52144;48.040;-1.594;2023-07-16T02:02:57;18.30;;;5.63;;
46210;SDS011;52144;48.040;-1.594;2023-07-16T02:05:26;15.32;;;4.97;;
46210;SDS011;52144;48.040;-1.594;2023-07-16T02:07:54;14.65;;;4.35;;
46210;SDS011;52144;48.040;-1.594;2023-07-16T02:10:22;20.75;;;5.55;;
46210;SDS011;52144;48.040;-1.594;2023-07-16T02:12:49;15.40;;;4.22;;
46210;SDS011;52144;48.040;-1.594;2023-07-16T02:15:17;18.10;;;4.75;;
46210;SDS011;52144;48.040;-1.594;2023-07-16T02:17:47;14.80;;;4.97;;
46210;SDS011;52144;48.040;-1.594;2023-07-16T02:20:15;19.17;;;5.57;;
46210;SDS011;52144;48.040;-1.594;2023-07-16T02:22:44;9.27;;;4.75;;
46210;SDS011;52144;48.040;-1.594;2023-07-16T02:25:12;17.02;;;5.60;;
46210;SDS011;52144;48.040;-1.594;2023-07-16T02:27:40;10.85;;;4.38;;
46210;SDS011;52144;48.040;-1.594;2023-07-16T02:30:08;12.35;;;4.32;;
46210;SDS011;52144;48.040;-1.594;2023-07-16T02:32:36;15.00;;;5.13;;
46210;SDS011;52144;48.040;-1.594;2023-07-16T02:35:04;19.65;;;5.15;;
46210;SDS011;52144;48.040;-1.594;2023-07-16T02:37:32;15.82;;;5.03;;
46210;SDS011;52144;48.040;-1.594;2023-07-16T02:40:02;17.55;;;5.28;;
46210;SDS011;52144;48.040;-1.594;2023-07-16T02:42:31;12.60;;;4.10;;
46210;SDS011;52144;48.040;-1.594;2023-07-16T02:44:58;15.65;;;4.78;;
46210;SDS011;52144;48.040;-1.594;2023-07-16T02:47:26;11.05;;;4.13;;
46210;SDS011;52144;48.040;-1.594;2023-07-16T02:49:54;11.00;;;5.00;;
46210;SDS011;52144;48.040;-1.594;2023-07-16T02:52:22;13.13;;;5.38;;
46210;SDS011;52144;48.040;-1.594;2023-07-16T02:54:50;13.02;;;5.43;;
46210;SDS011;52144;48.040;-1.594;2023-07-16T02:57:20;19.10;;;4.78;;
46210;SDS011;52144;48.040;-1.594;2023-07-16T02:59:49;13.60;;;4.63;;
46210;SDS011;52144;48.040;-1.594;2023-07-16T03:02:16;13.55;;;4.60;;
46210;SDS011;52144;48.040;-1.594;2023-07-16T03:04:44;13.95;;;5.53;;
46210;SDS011;52144;48.040;-1.594;2023-07-16T03:07:12;16.42;;;4.43;;
46210;SDS011;52144;48.040;-1.594;2023-07-16T03:09:40;12.48;;;4.32;;
46210;SDS011;52144;48.040;-1.594;2023-07-16T03:12:08;13.13;;;5.45;;
46210;SDS011;52144;48.040;-1.594;2023-07-16T03:14:38;15.27;;;5.95;;
46210;SDS011;52144;48.040;-1.594;2023-07-16T03:17:05;12.75;;;5.47;;
46210;SDS011;52144;48.040;-1.594;2023-07-16T03:19:33;20.95;;;5.47;;
46210;SDS011;52144;48.040;-1.594;2023-07-16T03:22:01;16.92;;;6.15;;
46210;SDS011;52144;48.040;-1.594;2023-07-16T03:24:30;15.05;;;5.00;;
46210;SDS011;52144;48.040;-1.594;2023-07-16T03:26:58;22.35;;;5.15;;
46210;SDS011;52144;48.040;-1.594;2023-07-16T03:29:44;15.45;;;4.60;;
46210;SDS011;52144;48.040;-1.594;2023-07-16T03:32:12;14.73;;;5.07;;
46210;SDS011;52144;48.040;-1.594;2023-07-16T03:34:39;10.32;;;4.60;;
46210;SDS011;52144;48.040;-1.594;2023-07-16T03:37:07;21.08;;;5.38;;
46210;SDS011;52144;48.040;-1.594;2023-07-16T03:39:35;11.32;;;5.30;;
46210;SDS011;52144;48.040;-1.594;2023-07-16T03:42:04;11.50;;;4.60;;
46210;SDS011;52144;48.040;-1.594;2023-07-16T03:44:32;15.13;;;5.03;;
46210;SDS011;52144;48.040;-1.594;2023-07-16T03:47:01;20.50;;;4.65;;
46210;SDS011;52144;48.040;-1.594;2023-07-16T03:49:29;14.15;;;5.28;;
46210;SDS011;52144;48.040;-1.594;2023-07-16T03:51:57;9.25;;;3.97;;
46210;SDS011;52144;48.040;-1.594;2023-07-16T03:54:25;17.65;;;5.45;;
46210;SDS011;52144;48.040;-1.594;2023-07-16T03:56:54;20.40;;;4.13;;
46210;SDS011;52144;48.040;-1.594;2023-07-16T03:59:22;11.13;;;5.78;;
46210;SDS011;52144;48.040;-1.594;2023-07-16T04:01:49;16.30;;;5.68;;
46210;SDS011;52144;48.040;-1.594;2023-07-16T04:04:19;16.13;;;5.32;;
46210;SDS011;52144;48.040;-1.594;2023-07-16T04:06:46;9.57;;;5.18;;
46210;SDS011;52144;48.040;-1.594;2023-07-16T04:09:14;18.98;;;5.70;;
46210;SDS011;52144;48.040;-1.594;2023-07-16T04:11:42;17.30;;;6.53;;
46210;SDS011;52144;48.040;-1.594;2023-07-16T04:14:10;22.00;;;5.50;;
46210;SDS011;52144;48.040;-1.594;2023-07-16T04:16:37;15.70;;;5.13;;
46210;SDS011;52144;48.040;-1.594;2023-07-16T04:19:05;17.75;;;5.78;;
46210;SDS011;52144;48.040;-1.594;2023-07-16T04:21:35;13.90;;;5.25;;
46210;SDS011;52144;48.040;-1.594;2023-07-16T04:24:03;16.55;;;6.07;;
46210;SDS011;52144;48.040;-1.594;2023-07-16T04:26:31;12.07;;;6.25;;
46210;SDS011;52144;48.040;-1.594;2023-07-16T04:28:59;12.48;;;5.20;;
46210;SDS011;52144;48.040;-1.594;2023-07-16T04:31:27;22.63;;;5.35;;
46210;SDS011;52144;48.040;-1.594;2023-07-16T04:33:55;17.00;;;5.40;;
46210;SDS011;52144;48.040;-1.594;2023-07-16T04:36:23;14.10;;;5.35;;
46210;SDS011;52144;48.040;-1.594;2023-07-16T04:38:52;14.63;;;6.00;;
46210;SDS011;52144;48.040;-1.594;2023-07-16T04:41:20;20.25;;;6.07;;
46210;SDS011;52144;48.040;-1.594;2023-07-16T04:43:48;25.90;;;6.90;;
46210;SDS011;52144;48.040;-1.594;2023-07-16T04:46:16;17.73;;;5.07;;
46210;SDS011;52144;48.040;-1.594;2023-07-16T04:48:44;15.40;;;5.68;;
46210;SDS011;52144;48.040;-1.594;2023-07-16T04:51:12;13.07;;;5.38;;
46210;SDS011;52144;48.040;-1.594;2023-07-16T04:53:40;15.18;;;5.38;;
46210;SDS011;52144;48.040;-1.594;2023-07-16T04:56:12;16.27;;;4.75;;
46210;SDS011;52144;48.040;-1.594;2023-07-16T04:58:41;17.95;;;5.78;;
46210;SDS011;52144;48.040;-1.594;2023-07-16T05:01:10;15.63;;;4.47;;
46210;SDS011;52144;48.040;-1.594;2023-07-16T05:03:38;16.13;;;5.45;;
46210;SDS011;52144;48.040;-1.594;2023-07-16T05:06:06;13.02;;;6.00;;
46210;SDS011;52144;48.040;-1.594;2023-07-16T05:08:33;13.55;;;4.60;;
46210;SDS011;52144;48.040;-1.594;2023-07-16T05:11:01;25.25;;;5.38;;
46210;SDS011;52144;48.040;-1.594;2023-07-16T05:13:31;15.13;;;5.43;;
46210;SDS011;52144;48.040;-1.594;2023-07-16T05:15:58;12.40;;;4.82;;
46210;SDS011;52144;48.040;-1.594;2023-07-16T05:18:26;14.02;;;4.40;;
46210;SDS011;52144;48.040;-1.594;2023-07-16T05:20:54;16.33;;;5.03;;
46210;SDS011;52144;48.040;-1.594;2023-07-16T05:23:22;19.55;;;6.07;;
46210;SDS011;52144;48.040;-1.594;2023-07-16T05:25:50;19.90;;;4.90;;
46210;SDS011;52144;48.040;-1.594;2023-07-16T05:28:18;19.23;;;5.90;;
46210;SDS011;52144;48.040;-1.594;2023-07-16T05:30:47;16.58;;;5.43;;
46210;SDS011;52144;48.040;-1.594;2023-07-16T05:33:15;17.08;;;6.32;;
46210;SDS011;52144;48.040;-1.594;2023-07-16T05:35:43;20.48;;;6.25;;
46210;SDS011;52144;48.040;-1.594;2023-07-16T05:40:44;18.92;;;5.35;;
46210;SDS011;52144;48.040;-1.594;2023-07-16T05:43:11;22.73;;;5.40;;
46210;SDS011;52144;48.040;-1.594;2023-07-16T05:45:41;16.02;;;5.18;;
46210;SDS011;52144;48.040;-1.594;2023-07-16T05:48:10;17.35;;;5.63;;
46210;SDS011;52144;48.040;-1.594;2023-07-16T05:50:38;13.23;;;5.82;;
46210;SDS011;52144;48.040;-1.594;2023-07-16T05:53:06;16.98;;;5.35;;
46210;SDS011;52144;48.040;-1.594;2023-07-16T05:55:34;16.55;;;6.28;;
46210;SDS011;52144;48.040;-1.594;2023-07-16T05:58:01;17.33;;;5.40;;
46210;SDS011;52144;48.040;-1.594;2023-07-16T06:00:29;17.60;;;6.95;;
46210;SDS011;52144;48.040;-1.594;2023-07-16T06:02:58;13.38;;;5.25;;
46210;SDS011;52144;48.040;-1.594;2023-07-16T06:05:28;19.80;;;5.85;;
46210;SDS011;52144;48.040;-1.594;2023-07-16T06:07:58;21.20;;;5.72;;
46210;SDS011;52144;48.040;-1.594;2023-07-16T06:10:26;14.45;;;5.25;;
46210;SDS011;52144;48.040;-1.594;2023-07-16T06:12:54;13.93;;;4.82;;
46210;SDS011;52144;48.040;-1.594;2023-07-16T06:15:22;16.17;;;6.07;;
46210;SDS011;52144;48.040;-1.594;2023-07-16T06:17:49;13.85;;;5.53;;
46210;SDS011;52144;48.040;-1.594;2023-07-16T06:20:18;15.35;;;6.13;;
46210;SDS011;52144;48.040;-1.594;2023-07-16T06:22:47;23.38;;;7.07;;
46210;SDS011;52144;48.040;-1.594;2023-07-16T06:25:15;13.88;;;4.90;;
46210;SDS011;52144;48.040;-1.594;2023-07-16T06:27:43;11.63;;;5.25;;
46210;SDS011;52144;48.040;-1.594;2023-07-16T06:30:11;17.02;;;5.57;;
46210;SDS011;52144;48.040;-1.594;2023-07-16T06:32:39;11.10;;;4.88;;
46210;SDS011;52144;48.040;-1.594;2023-07-16T06:35:07;14.43;;;4.90;;
46210;SDS011;52144;48.040;-1.594;2023-07-16T06:37:35;10.15;;;4.93;;
46210;SDS011;52144;48.040;-1.594;2023-07-16T06:40:05;14.75;;;5.45;;
46210;SDS011;52144;48.040;-1.594;2023-07-16T06:42:34;17.13;;;5.95;;
46210;SDS011;52144;48.040;-1.594;2023-07-16T06:45:02;12.98;;;5.32;;
46210;SDS011;52144;48.040;-1.594;2023-07-16T06:47:30;18.50;;;5.55;;
46210;SDS011;52144;48.040;-1.594;2023-07-16T06:49:58;13.43;;;4.90;;
46210;SDS011;52144;48.040;-1.594;2023-07-16T06:52:26;19.20;;;5.80;;
46210;SDS011;52144;48.040;-1.594;2023-07-16T06:54:54;12.82;;;6.28;;
46210;SDS011;52144;48.040;-1.594;2023-07-16T06:57:23;14.38;;;5.05;;
46210;SDS011;52144;48.040;-1.594;2023-07-16T06:59:51;17.77;;;4.22;;
46210;SDS011;52144;48.040;-1.594;2023-07-16T07:02:19;18.95;;;5.90;;
46210;SDS011;52144;48.040;-1.594;2023-07-16T07:04:47;15.40;;;4.18;;
46210;SDS011;52144;48.040;-1.594;2023-07-16T07:07:15;10.93;;;4.43;;
46210;SDS011;52144;48.040;-1.594;2023-07-16T07:09:42;15.18;;;4.60;;
46210;SDS011;52144;48.040;-1.594;2023-07-16T07:12:10;11.57;;;4.80;;
46210;SDS011;52144;48.040;-1.594;2023-07-16T07:14:39;16.00;;;5.43;;
46210;SDS011;52144;48.040;-1.594;2023-07-16T07:17:07;7.68;;;3.60;;
46210;SDS011;52144;48.040;-1.594;2023-07-16T07:19:35;12.60;;;5.40;;
46210;SDS011;52144;48.040;-1.594;2023-07-16T07:22:03;11.45;;;3.65;;
46210;SDS011;52144;48.040;-1.594;2023-07-16T07:24:31;10.77;;;3.80;;
46210;SDS011;52144;48.040;-1.594;2023-07-16T07:26:59;17.48;;;3.35;;
46210;SDS011;52144;48.040;-1.594;2023-07-16T07:29:26;6.70;;;3.40;;
46210;SDS011;52144;48.040;-1.594;2023-07-16T07:31:55;10.48;;;4.72;;
46210;SDS011;52144;48.040;-1.594;2023-07-16T07:34:23;11.30;;;3.53;;
46210;SDS011;52144;48.040;-1.594;2023-07-16T07:36:51;7.85;;;3.17;;
46210;SDS011;52144;48.040;-1.594;2023-07-16T07:39:19;6.32;;;4.22;;
46210;SDS011;52144;48.040;-1.594;2023-07-16T07:41:47;9.07;;;3.10;;
46210;SDS011;52144;48.040;-1.594;2023-07-16T07:44:14;9.20;;;3.40;;
46210;SDS011;52144;48.040;-1.594;2023-07-16T07:46:42;10.02;;;2.42;;
46210;SDS011;52144;48.040;-1.594;2023-07-16T07:49:11;9.45;;;3.28;;
46210;SDS011;52144;48.040;-1.594;2023-07-16T07:51:39;7.43;;;3.33;;
46210;SDS011;52144;48.040;-1.594;2023-07-16T07:54:07;5.25;;;3.22;;
46210;SDS011;52144;48.040;-1.594;2023-07-16T07:56:35;16.90;;;3.75;;
46210;SDS011;52144;48.040;-1.594;2023-07-16T07:59:02;8.85;;;3.83;;
46210;SDS011;52144;48.040;-1.594;2023-07-16T08:01:31;7.28;;;3.33;;
46210;SDS011;52144;48.040;-1.594;2023-07-16T08:03:59;13.63;;;3.38;;
46210;SDS011;52144;48.040;-1.594;2023-07-16T08:06:29;14.98;;;2.92;;
46210;SDS011;52144;48.040;-1.594;2023-07-16T08:08:57;18.08;;;4.45;;
46210;SDS011;52144;48.040;-1.594;2023-07-16T08:11:24;9.48;;;3.22;;
46210;SDS011;52144;48.040;-1.594;2023-07-16T08:13:52;8.05;;;2.72;;
46210;SDS011;52144;48.040;-1.594;2023-07-16T08:16:20;5.60;;;2.92;;
46210;SDS011;52144;48.040;-1.594;2023-07-16T08:18:48;8.32;;;3.30;;
46210;SDS011;52144;48.040;-1.594;2023-07-16T08:21:16;3.22;;;2.33;;
46210;SDS011;52144;48.040;-1.594;2023-07-16T08:23:48;14.30;;;3.65;;
46210;SDS011;52144;48.040;-1.594;2023-07-16T08:26:16;6.00;;;3.08;;
46210;SDS011;52144;48.040;-1.594;2023-07-16T08:28:45;7.93;;;3.08;;
46210;SDS011;52144;48.040;-1.594;2023-07-16T08:31:13;13.48;;;3.53;;
46210;SDS011;52144;48.040;-1.594;2023-07-16T08:33:41;7.72;;;2.85;;
46210;SDS011;52144;48.040;-1.594;2023-07-16T08:36:09;7.30;;;2.53;;
46210;SDS011;52144;48.040;-1.594;2023-07-16T08:38:37;9.07;;;3.15;;
46210;SDS011;52144;48.040;-1.594;2023-07-16T08:41:06;9.30;;;2.60;;
46210;SDS011;52144;48.040;-1.594;2023-07-16T08:43:34;6.07;;;2.83;;
46210;SDS011;52144;48.040;-1.594;2023-07-16T08:46:02;7.80;;;2.80;;
46210;SDS011;52144;48.040;-1.594;2023-07-16T08:48:30;8.10;;;2.95;;
46210;SDS011;52144;48.040;-1.594;2023-07-16T08:50:58;7.00;;;2.58;;
46210;SDS011;52144;48.040;-1.594;2023-07-16T08:53:29;8.30;;;2.53;;
46210;SDS011;52144;48.040;-1.594;2023-07-16T08:55:57;16.50;;;2.92;;
46210;SDS011;52144;48.040;-1.594;2023-07-16T08:58:27;4.95;;;2.97;;
46210;SDS011;52144;48.040;-1.594;2023-07-16T09:00:56;6.53;;;3.05;;
46210;SDS011;52144;48.040;-1.594;2023-07-16T09:03:25;7.82;;;3.20;;
46210;SDS011;52144;48.040;-1.594;2023-07-16T09:05:53;8.25;;;2.70;;
46210;SDS011;52144;48.040;-1.594;2023-07-16T09:08:22;7.70;;;3.05;;
46210;SDS011;52144;48.040;-1.594;2023-07-16T09:10:55;7.38;;;2.78;;
46210;SDS011;52144;48.040;-1.594;2023-07-16T09:13:23;7.35;;;2.75;;
46210;SDS011;52144;48.040;-1.594;2023-07-16T09:15:55;3.78;;;2.42;;
46210;SDS011;52144;48.040;-1.594;2023-07-16T09:18:25;8.68;;;2.78;;
46210;SDS011;52144;48.040;-1.594;2023-07-16T09:20:54;5.75;;;2.60;;
46210;SDS011;52144;48.040;-1.594;2023-07-16T09:23:23;5.18;;;2.30;;
46210;SDS011;52144;48.040;-1.594;2023-07-16T09:25:53;8.93;;;2.70;;
46210;SDS011;52144;48.040;-1.594;2023-07-16T09:28:21;9.52;;;2.78;;
46210;SDS011;52144;48.040;-1.594;2023-07-16T09:30:49;5.15;;;2.35;;
46210;SDS011;52144;48.040;-1.594;2023-07-16T09:33:19;6.75;;;2.75;;
46210;SDS011;52144;48.040;-1.594;2023-07-16T09:35:48;10.00;;;2.92;;
46210;SDS011;52144;48.040;-1.594;2023-07-16T09:38:17;8.75;;;3.28;;
46210;SDS011;52144;48.040;-1.594;2023-07-16T09:40:45;7.90;;;2.22;;
46210;SDS011;52144;48.040;-1.594;2023-07-16T09:43:13;7.15;;;2.75;;
46210;SDS011;52144;48.040;-1.594;2023-07-16T09:45:42;7.18;;;2.65;;
46210;SDS011;52144;48.040;-1.594;2023-07-16T09:48:10;6.53;;;3.45;;
46210;SDS011;52144;48.040;-1.594;2023-07-16T09:50:39;7.90;;;3.05;;
46210;SDS011;52144;48.040;-1.594;2023-07-16T09:53:13;5.13;;;2.42;;
46210;SDS011;52144;48.040;-1.594;2023-07-16T09:55:43;6.57;;;2.63;;
46210;SDS011;52144;48.040;-1.594;2023-07-16T09:58:11;6.28;;;2.60;;
46210;SDS011;52144;48.040;-1.594;2023-07-16T10:00:40;6.00;;;2.30;;
46210;SDS011;52144;48.040;-1.594;2023-07-16T10:03:09;4.60;;;2.28;;
46210;SDS011;52144;48.040;-1.594;2023-07-16T10:05:37;5.20;;;2.20;;
46210;SDS011;52144;48.040;-1.594;2023-07-16T10:08:15;5.30;;;2.50;;
46210;SDS011;52144;48.040;-1.594;2023-07-16T10:10:45;8.95;;;2.88;;
46210;SDS011;52144;48.040;-1.594;2023-07-16T10:13:15;12.52;;;3.05;;
46210;SDS011;52144;48.040;-1.594;2023-07-16T10:15:50;11.02;;;3.40;;
46210;SDS011;52144;48.040;-1.594;2023-07-16T10:18:23;11.68;;;2.95;;
46210;SDS011;52144;48.040;-1.594;2023-07-16T10:20:53;9.95;;;3.42;;
46210;SDS011;52144;48.040;-1.594;2023-07-16T10:23:26;7.07;;;2.95;;
46210;SDS011;52144;48.040;-1.594;2023-07-16T10:26:04;9.43;;;3.15;;
46210;SDS011;52144;48.040;-1.594;2023-07-16T10:28:33;5.25;;;2.47;;
46210;SDS011;52144;48.040;-1.594;2023-07-16T10:31:01;10.43;;;2.83;;
46210;SDS011;52144;48.040;-1.594;2023-07-16T10:33:29;4.53;;;2.47;;
46210;SDS011;52144;48.040;-1.594;2023-07-16T10:35:57;5.00;;;2.50;;
46210;SDS011;52144;48.040;-1.594;2023-07-16T10:38:27;10.18;;;2.60;;
46210;SDS011;52144;48.040;-1.594;2023-07-16T10:40:55;7.57;;;2.63;;
46210;SDS011;52144;48.040;-1.594;2023-07-16T10:43:23;3.25;;;1.65;;
46210;SDS011;52144;48.040;-1.594;2023-07-16T10:45:51;6.05;;;2.20;;
46210;SDS011;52144;48.040;-1.594;2023-07-16T10:48:24;7.05;;;2.30;;
46210;SDS011;52144;48.040;-1.594;2023-07-16T10:50:53;4.80;;;2.78;;
46210;SDS011;52144;48.040;-1.594;2023-07-16T10:53:21;4.38;;;1.73;;
46210;SDS011;52144;48.040;-1.594;2023-07-16T10:55:50;3.97;;;1.73;;
46210;SDS011;52144;48.040;-1.594;2023-07-16T10:58:18;2.75;;;1.80;;
46210;SDS011;52144;48.040;-1.594;2023-07-16T11:00:46;4.70;;;2.13;;
46210;SDS011;52144;48.040;-1.594;2023-07-16T11:03:14;6.32;;;2.00;;
46210;SDS011;52144;48.040;-1.594;2023-07-16T11:05:45;2.88;;;1.67;;
46210;SDS011;52144;48.040;-1.594;2023-07-16T11:08:21;2.38;;;1.70;;
46210;SDS011;52144;48.040;-1.594;2023-07-16T11:10:54;4.65;;;2.03;;
46210;SDS011;52144;48.040;-1.594;2023-07-16T11:13:25;3.08;;;1.50;;
46210;SDS011;52144;48.040;-1.594;2023-07-16T11:15:53;4.25;;;1.75;;
46210;SDS011;52144;48.040;-1.594;2023-07-16T11:18:22;3.97;;;2.70;;
46210;SDS011;52144;48.040;-1.594;2023-07-16T11:20:51;11.45;;;2.33;;
46210;SDS011;52144;48.040;-1.594;2023-07-16T11:23:19;4.18;;;2.05;;
46210;SDS011;52144;48.040;-1.594;2023-07-16T11:25:47;7.47;;;2.58;;
46210;SDS011;52144;48.040;-1.594;2023-07-16T11:28:16;6.30;;;2.03;;
46210;SDS011;52144;48.040;-1.594;2023-07-16T11:30:44;2.65;;;1.50;;
46210;SDS011;52144;48.040;-1.594;2023-07-16T11:33:12;3.88;;;2.15;;
46210;SDS011;52144;48.040;-1.594;2023-07-16T11:35:41;6.82;;;2.28;;
46210;SDS011;52144;48.040;-1.594;2023-07-16T11:38:09;2.58;;;1.30;;
46210;SDS011;52144;48.040;-1.594;2023-07-16T11:40:37;4.35;;;1.38;;
46210;SDS011;52144;48.040;-1.594;2023-07-16T11:43:09;5.93;;;1.52;;
46210;SDS011;52144;48.040;-1.594;2023-07-16T11:45:39;1.67;;;0.88;;
46210;SDS011;52144;48.040;-1.594;2023-07-16T11:48:07;1.38;;;1.20;;
46210;SDS011;52144;48.040;-1.594;2023-07-16T11:50:35;1.77;;;0.93;;
46210;SDS011;52144;48.040;-1.594;2023-07-16T11:53:03;1.35;;;1.15;;
46210;SDS011;52144;48.040;-1.594;2023-07-16T11:55:31;2.78;;;1.33;;
46210;SDS011;52144;48.040;-1.594;2023-07-16T11:57:59;2.65;;;1.40;;
46210;SDS011;52144;48.040;-1.594;2023-07-16T12:00:29;1.27;;;0.80;;
46210;SDS011;52144;48.040;-1.594;2023-07-16T12:02:58;2.72;;;1.20;;
46210;SDS011;52144;48.040;-1.594;2023-07-16T12:05:26;2.30;;;1.20;;
46210;SDS011;52144;48.040;-1.594;2023-07-16T12:08:14;0.95;;;0.70;;
46210;SDS011;52144;48.040;-1.594;2023-07-16T12:10:42;2.08;;;0.77;;
46210;SDS011;52144;48.040;-1.594;2023-07-16T12:13:10;1.10;;;0.77;;
46210;SDS011;52144;48.040;-1.594;2023-07-16T12:15:38;2.92;;;0.60;;
46210;SDS011;52144;48.040;-1.594;2023-07-16T12:18:07;0.77;;;0.77;;
46210;SDS011;52144;48.040;-1.594;2023-07-16T12:20:35;3.35;;;0.60;;
46210;SDS011;52144;48.040;-1.594;2023-07-16T12:23:03;1.13;;;1.08;;
46210;SDS011;52144;48.040;-1.594;2023-07-16T12:25:31;1.15;;;0.73;;
46210;SDS011;52144;48.040;-1.594;2023-07-16T12:27:59;1.65;;;0.77;;
46210;SDS011;52144;48.040;-1.594;2023-07-16T12:30:28;4.28;;;1.10;;
46210;SDS011;52144;48.040;-1.594;2023-07-16T12:32:56;1.05;;;0.70;;
46210;SDS011;52144;48.040;-1.594;2023-07-16T12:35:25;3.75;;;0.93;;
46210;SDS011;52144;48.040;-1.594;2023-07-16T12:37:53;4.72;;;1.65;;
46210;SDS011;52144;48.040;-1.594;2023-07-16T12:40:21;1.35;;;0.52;;
46210;SDS011;52144;48.040;-1.594;2023-07-16T12:42:49;1.88;;;1.05;;
46210;SDS011;52144;48.040;-1.594;2023-07-16T12:45:16;1.27;;;0.60;;
46210;SDS011;52144;48.040;-1.594;2023-07-16T12:47:44;2.80;;;0.95;;
46210;SDS011;52144;48.040;-1.594;2023-07-16T12:50:12;2.08;;;0.45;;
46210;SDS011;52144;48.040;-1.594;2023-07-16T12:52:41;3.17;;;0.77;;
46210;SDS011;52144;48.040;-1.594;2023-07-16T12:55:09;0.70;;;0.70;;
46210;SDS011;52144;48.040;-1.594;2023-07-16T12:57:37;0.60;;;0.40;;
46210;SDS011;52144;48.040;-1.594;2023-07-16T13:00:05;0.68;;;0.68;;
46210;SDS011;52144;48.040;-1.594;2023-07-16T13:02:36;1.15;;;0.82;;
46210;SDS011;52144;48.040;-1.594;2023-07-16T13:05:04;3.40;;;0.95;;
46210;SDS011;52144;48.040;-1.594;2023-07-16T13:07:31;2.22;;;0.47;;
46210;SDS011;52144;48.040;-1.594;2023-07-16T13:10:02;3.15;;;1.08;;
46210;SDS011;52144;48.040;-1.594;2023-07-16T13:12:48;1.77;;;0.73;;
46210;SDS011;52144;48.040;-1.594;2023-07-16T13:15:16;1.60;;;0.75;;
46210;SDS011;52144;48.040;-1.594;2023-07-16T13:17:44;3.92;;;0.90;;
46210;SDS011;52144;48.040;-1.594;2023-07-16T13:20:13;2.13;;;0.98;;
46210;SDS011;52144;48.040;-1.594;2023-07-16T13:22:41;1.33;;;0.93;;
46210;SDS011;52144;48.040;-1.594;2023-07-16T13:25:10;0.80;;;0.70;;
46210;SDS011;52144;48.040;-1.594;2023-07-16T13:27:38;2.72;;;0.90;;
46210;SDS011;52144;48.040;-1.594;2023-07-16T13:30:06;1.23;;;0.98;;
46210;SDS011;52144;48.040;-1.594;2023-07-16T13:32:35;4.22;;;1.60;;
46210;SDS011;52144;48.040;-1.594;2023-07-16T13:35:02;1.33;;;0.93;;
46210;SDS011;52144;48.040;-1.594;2023-07-16T13:37:31;4.43;;;1.48;;
46210;SDS011;52144;48.040;-1.594;2023-07-16T13:39:59;2.67;;;1.05;;
46210;SDS011;52144;48.040;-1.594;2023-07-16T13:42:28;7.53;;;1.75;;
46210;SDS011;52144;48.040;-1.594;2023-07-16T13:44:56;2.38;;;1.30;;
46210;SDS011;52144;48.040;-1.594;2023-07-16T13:47:24;4.47;;;1.40;;
46210;SDS011;52144;48.040;-1.594;2023-07-16T13:49:55;2.35;;;1.15;;
46210;SDS011;52144;48.040;-1.594;2023-07-16T13:52:23;5.95;;;1.77;;
46210;SDS011;52144;48.040;-1.594;2023-07-16T13:54:51;2.60;;;1.27;;
46210;SDS011;52144;48.040;-1.594;2023-07-16T14:00:21;2.60;;;1.65;;
46210;SDS011;52144;48.040;-1.594;2023-07-16T14:02:49;10.60;;;2.00;;
46210;SDS011;52144;48.040;-1.594;2023-07-16T14:05:17;5.00;;;1.45;;
46210;SDS011;52144;48.040;-1.594;2023-07-16T14:07:46;3.70;;;1.77;;
46210;SDS011;52144;48.040;-1.594;2023-07-16T14:10:14;5.57;;;2.10;;
46210;SDS011;52144;48.040;-1.594;2023-07-16T14:12:42;3.22;;;1.95;;
46210;SDS011;52144;48.040;-1.594;2023-07-16T14:15:11;3.45;;;1.92;;
46210;SDS011;52144;48.040;-1.594;2023-07-16T14:17:39;4.68;;;1.73;;
46210;SDS011;52144;48.040;-1.594;2023-07-16T14:20:07;6.28;;;2.28;;
46210;SDS011;52144;48.040;-1.594;2023-07-16T14:22:36;5.25;;;1.63;;
46210;SDS011;52144;48.040;-1.594;2023-07-16T14:25:04;5.97;;;2.17;;
46210;SDS011;52144;48.040;-1.594;2023-07-16T14:27:33;4.50;;;1.92;;
46210;SDS011;52144;48.040;-1.594;2023-07-16T14:30:00;7.05;;;2.58;;
46210;SDS011;52144;48.040;-1.594;2023-07-16T14:32:33;4.78;;;2.42;;
46210;SDS011;52144;48.040;-1.594;2023-07-16T14:35:01;3.97;;;2.17;;
46210;SDS011;52144;48.040;-1.594;2023-07-16T14:37:30;7.68;;;1.98;;
46210;SDS011;52144;48.040;-1.594;2023-07-16T14:39:58;3.80;;;2.28;;
46210;SDS011;52144;48.040;-1.594;2023-07-16T14:42:25;4.47;;;2.03;;
46210;SDS011;52144;48.040;-1.594;2023-07-16T14:44:53;5.90;;;1.83;;